Time;durP1;ratioP1;P1;durP2;ratioP2;P2;SDS_P1;SDS_P2;PMS_P1;PMS_P2;Temp;Humidity;BMP_temperature;BMP_pressure;BME280_temperature;BME280_humidity;BME280_pressure;Samples;Min_cycle;Max_cycle;Signal;HPM_P1;HPM_P2
2022/03/18 00:00:25;;;;;;;4.80;4.50;;;;;;;22.29;26.97;96578.94;6162755;28;102792;-62
2022/03/18 00:03:27;;;;;;;5.17;4.87;;;;;;;22.29;27.08;96570.94;6175408;28;102908;-66
2022/03/18 00:06:29;;;;;;;5.20;4.80;;;;;;;22.30;26.77;96578.66;6180707;28;102829;-65
2022/03/18 00:09:32;;;;;;;4.70;4.40;;;;;;;22.29;26.97;96578.94;6179721;28;102791;-64
2022/03/18 00:12:33;;;;;;;4.93;4.57;;;;;;;22.29;26.88;96581.59;6175446;28;103244;-62
2022/03/18 00:15:35;;;;;;;5.07;4.67;;;;;;;22.28;26.86;96580.78;6180489;28;103394;-63
2022/03/18 00:18:37;;;;;;;5.07;4.67;;;;;;;22.29;27.02;96579.72;6163413;28;102918;-63
2022/03/18 00:21:39;;;;;;;4.73;4.33;;;;;;;22.28;26.75;96591.44;6181423;28;103162;-61
2022/03/18 00:24:41;;;;;;;4.40;4.10;;;;;;;22.28;26.73;96588.78;6181461;28;103266;-62
2022/03/18 00:27:44;;;;;;;4.13;3.90;;;;;;;22.28;26.57;96591.44;6178421;28;103310;-61
2022/03/18 00:30:48;;;;;;;4.60;4.30;;;;;;;22.30;26.79;96594.63;6179562;28;102807;-64
2022/03/18 00:33:50;;;;;;;4.40;4.10;;;;;;;22.27;26.69;96599.69;6180735;28;103142;-63
2022/03/18 00:36:53;;;;;;;4.20;3.90;;;;;;;22.29;26.93;96593.03;6157126;28;103071;-62
2022/03/18 00:39:54;;;;;;;4.60;4.30;;;;;;;22.27;26.56;96589.84;6180994;28;103077;-64
2022/03/18 00:42:56;;;;;;;4.70;4.40;;;;;;;22.28;26.89;96599.44;6179888;28;103044;-63
2022/03/18 00:45:58;;;;;;;4.50;4.20;;;;;;;22.28;26.50;96601.28;6174759;28;103289;-68
2022/03/18 00:52:22;;;;;;;4.20;3.90;;;;;;;22.25;26.78;96597.28;6180507;28;102875;-63
2022/03/18 00:55:24;;;;;;;4.30;4.00;;;;;;;22.27;26.76;96605.00;6181150;28;103819;-62
2022/03/18 00:58:26;;;;;;;4.03;3.83;;;;;;;22.27;26.70;96603.16;6156911;28;103447;-62
2022/03/18 01:01:29;;;;;;;4.20;3.90;;;;;;;22.27;26.49;96605.00;6179995;28;102689;-64
2022/03/18 01:04:32;;;;;;;3.80;3.60;;;;;;;22.25;26.85;96607.94;6184885;28;102940;-62
2022/03/18 01:07:34;;;;;;;4.80;4.50;;;;;;;22.26;26.58;96617.53;6180076;28;103216;-62
2022/03/18 01:10:36;;;;;;;4.13;3.83;;;;;;;22.26;26.88;96614.88;6165874;28;102890;-64
2022/03/18 01:13:38;;;;;;;4.00;3.80;;;;;;;22.28;26.35;96625.25;6184164;28;103006;-65
2022/03/18 01:16:40;;;;;;;3.80;3.60;;;;;;;22.26;26.62;96614.06;6184300;28;102796;-64
2022/03/18 01:19:42;;;;;;;4.07;3.77;;;;;;;22.26;26.52;96614.88;6179322;28;103269;-63
2022/03/18 01:22:44;;;;;;;4.17;3.87;;;;;;;22.24;26.30;96611.66;6183735;28;104531;-64
2022/03/18 01:25:45;;;;;;;3.87;3.57;;;;;;;22.24;26.61;96614.34;6194496;28;102976;-62
2022/03/18 01:28:47;;;;;;;4.13;3.87;;;;;;;22.25;26.55;96609.81;6182947;28;103416;-62
2022/03/18 01:31:49;;;;;;;3.70;3.50;;;;;;;22.24;26.28;96611.66;6178839;28;102703;-64
2022/03/18 01:34:51;;;;;;;4.00;3.70;;;;;;;22.25;26.48;96610.59;6184673;28;103105;-62
2022/03/18 01:37:52;;;;;;;3.80;3.50;;;;;;;22.25;26.50;96609.81;6183667;28;102732;-64
2022/03/18 01:40:55;;;;;;;3.93;3.63;;;;;;;22.24;26.53;96601.03;6176739;28;103069;-64
2022/03/18 01:43:56;;;;;;;3.80;3.60;;;;;;;22.25;26.31;96610.59;6183085;28;102690;-62
2022/03/18 01:47:00;;;;;;;3.70;3.50;;;;;;;22.26;26.37;96612.19;6182707;28;104226;-63
2022/03/18 01:50:02;;;;;;;3.83;3.60;;;;;;;22.26;26.52;96608.75;6182069;28;103072;-63
2022/03/18 01:53:04;;;;;;;3.50;3.30;;;;;;;22.26;26.37;96614.06;6177963;28;102767;-62
2022/03/18 01:56:06;;;;;;;3.50;3.30;;;;;;;22.23;26.19;96618.06;6183658;28;102665;-63
2022/03/18 01:59:13;;;;;;;3.60;3.40;;;;;;;22.23;26.23;96615.41;6165105;28;102888;-63
2022/03/18 02:02:15;;;;;;;3.87;3.57;;;;;;;22.24;26.34;96616.19;6166256;28;102867;-64
2022/03/18 02:05:18;;;;;;;3.57;3.37;;;;;;;22.24;26.43;96627.66;6172456;28;103361;-63
2022/03/18 02:08:20;;;;;;;4.00;3.80;;;;;;;22.25;26.03;96620.47;6181883;28;103016;-67
2022/03/18 02:11:23;;;;;;;3.73;3.43;;;;;;;22.23;26.23;96623.38;6166035;28;102879;-65
2022/03/18 02:14:36;;;;;;;3.40;3.20;;;;;;;22.23;26.57;96626.03;6158177;28;103067;-64
2022/03/18 02:17:38;;;;;;;3.67;3.47;;;;;;;22.25;26.18;96623.13;6184369;28;103090;-65
2022/03/18 02:20:40;;;;;;;3.60;3.40;;;;;;;22.24;26.21;96617.00;6181730;28;102843;-63
2022/03/18 02:23:43;;;;;;;3.87;3.57;;;;;;;22.25;26.31;96623.13;6188322;28;103058;-67
2022/03/18 02:26:53;;;;;;;3.80;3.53;;;;;;;22.25;26.04;96628.44;6152785;28;103247;-67
2022/03/18 02:29:55;;;;;;;3.60;3.40;;;;;;;22.25;26.33;96628.44;6179348;28;103146;-68
2022/03/18 02:32:57;;;;;;;3.83;3.63;;;;;;;22.24;25.99;96632.97;6182135;28;102855;-67
2022/03/18 02:35:59;;;;;;;3.93;3.63;;;;;;;22.24;25.99;96632.97;6158707;28;103388;-69
2022/03/18 02:39:01;;;;;;;3.60;3.40;;;;;;;22.23;26.02;96636.69;6175679;28;104294;-67
2022/03/18 02:42:04;;;;;;;3.87;3.67;;;;;;;22.23;26.37;96635.91;6182504;28;103335;-67
2022/03/18 02:45:08;;;;;;;4.00;3.80;;;;;;;22.23;25.86;96639.34;6181623;28;103121;-67
2022/03/18 02:48:09;;;;;;;4.27;3.97;;;;;;;22.24;26.11;96645.47;6177380;28;104275;-70
2022/03/18 02:51:11;;;;;;;4.17;3.87;;;;;;;22.23;26.31;96651.88;6182312;28;103091;-67
2022/03/18 02:54:13;;;;;;;4.20;3.93;;;;;;;22.23;26.08;96649.22;6157668;28;102937;-68
2022/03/18 02:57:15;;;;;;;4.00;3.80;;;;;;;22.24;25.64;96662.25;6181886;28;102880;-71
2022/03/18 03:00:16;;;;;;;4.83;4.53;;;;;;;22.22;26.19;96661.72;6171178;28;105101;-68
2022/03/18 03:03:18;;;;;;;4.57;4.27;;;;;;;22.23;26.01;96668.66;6183127;28;103237;-68
2022/03/18 03:09:41;;;;;;;4.80;4.50;;;;;;;22.24;26.04;96674.75;6172856;28;103865;-66
2022/03/18 03:12:43;;;;;;;4.13;3.90;;;;;;;22.21;26.00;96681.41;6182958;28;102788;-68
2022/03/18 03:15:45;;;;;;;4.20;3.90;;;;;;;22.21;25.99;96682.22;6194410;28;103167;-68
2022/03/18 03:18:47;;;;;;;4.30;4.00;;;;;;;22.23;25.85;96683.81;6183601;28;102662;-68
2022/03/18 03:21:49;;;;;;;4.57;4.27;;;;;;;22.24;25.77;96677.44;6172239;28;102784;-67
2022/03/18 03:24:51;;;;;;;4.63;4.33;;;;;;;22.22;25.89;96685.69;6178600;28;102832;-67
2022/03/18 03:27:53;;;;;;;4.80;4.40;;;;;;;22.22;25.96;96683.00;6182162;28;103156;-68
2022/03/18 03:30:55;;;;;;;4.77;4.47;;;;;;;22.23;26.01;96683.81;6175315;28;102967;-68
2022/03/18 03:33:57;;;;;;;4.73;4.43;;;;;;;22.21;25.85;96686.75;6165237;28;103368;-69
2022/03/18 03:36:59;;;;;;;4.53;4.23;;;;;;;22.23;26.01;96694.47;6163958;28;103150;-69
2022/03/18 03:40:01;;;;;;;5.00;4.70;;;;;;;22.21;25.67;96697.38;6179358;28;103011;-69
2022/03/18 03:43:03;;;;;;;4.80;4.50;;;;;;;22.19;25.77;96695.00;6175461;28;104836;-67
2022/03/18 03:46:05;;;;;;;4.70;4.40;;;;;;;22.20;25.60;96701.13;6180548;28;102936;-67
2022/03/18 03:49:07;;;;;;;4.67;4.37;;;;;;;22.21;25.68;96697.38;6162948;28;102825;-67
2022/03/18 03:52:08;;;;;;;5.20;4.90;;;;;;;22.20;25.67;96709.09;6164352;28;102756;-67
2022/03/18 03:55:12;;;;;;;4.80;4.50;;;;;;;22.20;25.65;96712.56;6174364;28;103506;-68
2022/03/18 03:58:14;;;;;;;4.60;4.00;;;;;;;22.21;26.04;96708.84;6181755;28;102829;-68
2022/03/18 04:01:16;;;;;;;4.70;4.40;;;;;;;22.20;25.93;96715.22;6179100;28;103153;-66
2022/03/18 04:04:18;;;;;;;4.60;4.30;;;;;;;22.20;25.81;96714.44;6176418;28;104866;-65
2022/03/18 04:07:20;;;;;;;4.90;4.50;;;;;;;22.22;25.61;96725.63;6182566;28;103110;-67
2022/03/18 04:10:22;;;;;;;4.90;4.60;;;;;;;22.18;25.69;96720.00;6180985;28;102716;-68
2022/03/18 04:13:23;;;;;;;5.57;5.17;;;;;;;22.21;25.79;96734.66;6161840;28;102872;-71
2022/03/18 04:16:25;;;;;;;4.80;4.50;;;;;;;22.19;25.64;96734.91;6173816;28;103409;-69
2022/03/18 04:19:27;;;;;;;4.50;4.20;;;;;;;22.18;25.98;96737.84;6179393;28;103256;-70
2022/03/18 04:22:29;;;;;;;6.03;5.60;;;;;;;21.77;25.38;96742.84;6179106;28;103012;-69
2022/03/18 04:25:31;;;;;;;6.47;6.07;;;;;;;21.51;25.24;96746.41;6187320;28;102973;-69
2022/03/18 04:28:33;;;;;;;6.57;6.07;;;;;;;21.20;25.08;96745.28;6161000;28;102795;-68
2022/03/18 04:31:35;;;;;;;6.93;6.40;;;;;;;21.05;25.04;96755.75;6179686;28;102771;-68
2022/03/18 04:34:37;;;;;;;6.77;6.27;;;;;;;20.92;24.74;96755.09;6164835;28;103303;-68
2022/03/18 04:37:41;;;;;;;8.23;7.63;;;;;;;20.78;24.82;96755.72;6177634;28;103000;-67
2022/03/18 04:40:43;;;;;;;8.10;7.40;;;;;;;20.61;24.58;96753.94;6164202;28;103622;-68
2022/03/18 04:43:45;;;;;;;7.40;6.80;;;;;;;20.43;24.45;96754.25;6183971;28;103423;-69
2022/03/18 04:46:48;;;;;;;6.03;5.40;;;;;;;20.55;24.55;96754.94;6182632;28;104602;-72
2022/03/18 04:49:50;;;;;;;6.70;6.20;;;;;;;20.74;24.57;96760.72;6178391;28;102679;-72
2022/03/18 04:52:51;;;;;;;7.03;6.53;;;;;;;20.81;24.58;96760.53;6178047;28;102800;-70
2022/03/18 04:55:53;;;;;;;6.53;6.13;;;;;;;20.88;24.66;96769.13;6175230;28;104398;-70
2022/03/18 04:58:55;;;;;;;6.63;6.03;;;;;;;20.83;24.68;96772.53;6172177;28;104850;-72
2022/03/18 05:01:57;;;;;;;6.13;5.53;;;;;;;20.99;25.58;96781.44;6186444;28;102940;-71
2022/03/18 05:04:59;;;;;;;7.00;6.40;;;;;;;21.16;25.45;96787.47;6198025;28;103015;-72
2022/03/18 05:08:00;;;;;;;6.07;5.60;;;;;;;21.28;25.36;96777.53;6185098;28;102812;-71
2022/03/18 05:11:04;;;;;;;6.33;5.83;;;;;;;21.43;26.02;96784.06;6161185;28;103807;-71
2022/03/18 05:14:06;;;;;;;6.17;5.77;;;;;;;21.49;26.08;96781.19;6191584;28;104248;-72
2022/03/18 05:17:10;;;;;;;6.53;6.03;;;;;;;21.43;24.98;96784.06;6183473;28;102875;-71
2022/03/18 05:20:12;;;;;;;5.80;5.30;;;;;;;21.43;25.76;96776.88;6166523;28;102793;-73
2022/03/18 05:23:14;;;;;;;5.20;4.80;;;;;;;21.42;25.77;96779.81;6162329;28;103228;-68
2022/03/18 05:26:16;;;;;;;5.40;5.00;;;;;;;21.34;25.86;96775.75;6208977;28;103458;-69
2022/03/18 05:29:18;;;;;;;5.97;5.57;;;;;;;21.24;25.73;96771.13;6192362;28;102825;-66
2022/03/18 05:32:20;;;;;;;5.80;4.97;;;;;;;21.20;25.86;96777.19;6202784;28;102936;-69
2022/03/18 05:35:22;;;;;;;5.50;5.10;;;;;;;21.18;25.70;96780.09;6189644;28;103003;-68
2022/03/18 05:38:23;;;;;;;6.00;5.50;;;;;;;21.18;25.74;96784.59;6209359;28;102708;-67
2022/03/18 05:41:26;;;;;;;5.47;5.07;;;;;;;21.17;25.60;96789.13;6207541;28;103341;-68
2022/03/18 05:44:27;;;;;;;5.13;4.83;;;;;;;21.20;25.66;96795.78;6201510;28;102770;-68
2022/03/18 05:47:30;;;;;;;5.30;5.00;;;;;;;21.19;25.56;96797.63;6207974;28;102739;-67
2022/03/18 05:50:33;;;;;;;5.37;5.07;;;;;;;21.18;25.56;96798.69;6209154;28;102983;-68
2022/03/18 05:53:35;;;;;;;4.60;4.30;;;;;;;21.21;25.47;96800.84;6205166;28;103177;-67
2022/03/18 05:56:53;;;;;;;5.13;4.83;;;;;;;21.22;25.59;96806.97;6207821;28;102807;-67
2022/03/18 05:59:58;;;;;;;4.87;4.47;;;;;;;21.22;25.46;96806.97;6209832;28;103076;-67
2022/03/18 06:03:00;;;;;;;5.23;4.73;;;;;;;21.22;25.41;96813.09;6208912;28;102980;-67
2022/03/18 06:06:03;;;;;;;5.13;4.73;;;;;;;21.24;25.45;96815.50;6204121;28;103346;-67
2022/03/18 06:12:26;;;;;;;4.87;4.57;;;;;;;21.31;25.37;96832.06;6208615;28;102797;-68
2022/03/18 06:15:28;;;;;;;5.20;4.80;;;;;;;21.30;25.46;96833.91;6208706;28;102690;-68
2022/03/18 06:18:35;;;;;;;4.83;4.53;;;;;;;21.29;25.28;96848.28;6206002;28;102786;-69
2022/03/18 06:21:37;;;;;;;5.00;4.70;;;;;;;21.27;25.32;96846.91;6209891;28;103193;-68
2022/03/18 06:24:40;;;;;;;4.60;4.30;;;;;;;21.23;25.27;96851.91;6195037;28;102961;-69
2022/03/18 06:27:41;;;;;;;4.60;4.30;;;;;;;21.25;25.27;96849.03;6178591;28;103123;-67
2022/03/18 06:30:44;;;;;;;4.87;4.47;;;;;;;21.25;25.44;96847.16;6166111;28;103597;-67
2022/03/18 06:33:46;;;;;;;4.90;4.57;;;;;;;21.27;25.36;96863.66;6166159;28;102739;-68
2022/03/18 06:36:49;;;;;;;4.53;4.13;;;;;;;21.24;25.33;96868.66;6184081;28;102720;-68
2022/03/18 06:39:51;;;;;;;4.70;4.30;;;;;;;21.25;25.34;96864.97;6179513;28;103193;-68
2022/03/18 06:42:52;;;;;;;4.77;4.43;;;;;;;21.28;25.30;96870.59;6183903;28;103065;-67
2022/03/18 06:45:55;;;;;;;5.83;4.93;;;;;;;21.30;25.27;96873.00;6181910;28;102985;-68
2022/03/18 06:48:57;;;;;;;4.67;4.27;;;;;;;21.38;25.26;96874.44;6178517;28;103024;-68
2022/03/18 06:51:59;;;;;;;4.90;4.60;;;;;;;21.46;25.23;96882.75;6183754;28;103213;-68
2022/03/18 06:55:01;;;;;;;4.40;4.10;;;;;;;21.47;25.65;96881.69;6183615;28;102895;-69
2022/03/18 06:58:03;;;;;;;5.00;4.60;;;;;;;21.48;25.51;96888.63;6182900;28;103008;-68
2022/03/18 07:01:05;;;;;;;5.07;4.67;;;;;;;21.46;25.47;96889.94;6178729;28;103597;-67
2022/03/18 07:04:07;;;;;;;3.90;3.60;;;;;;;21.43;25.40;96898.41;6165128;28;102814;-66
2022/03/18 07:07:09;;;;;;;5.07;4.77;;;;;;;21.43;25.21;96893.09;6183339;28;102825;-68
2022/03/18 07:10:13;;;;;;;5.07;4.73;;;;;;;21.42;25.49;96891.47;6183962;28;102707;-68
2022/03/18 07:13:16;;;;;;;4.40;4.10;;;;;;;21.43;25.29;96904.53;6178600;28;104470;-66
2022/03/18 07:19:38;;;;;;;4.73;4.33;;;;;;;21.78;24.98;96906.75;6182571;28;102783;-67
2022/03/18 07:22:41;;;;;;;4.47;4.17;;;;;;;21.78;25.00;96917.41;6177180;28;102663;-67
2022/03/18 07:25:45;;;;;;;4.80;4.40;;;;;;;21.92;25.08;96909.81;6205725;28;102692;-66
2022/03/18 07:28:52;;;;;;;4.70;4.40;;;;;;;22.06;24.62;96915.56;6208268;28;103191;-67
2022/03/18 07:31:55;;;;;;;4.43;4.13;;;;;;;22.03;24.42;96908.88;6207864;28;102959;-67
2022/03/18 07:34:57;;;;;;;4.97;4.57;;;;;;;22.18;24.49;96910.88;6202630;28;103143;-68
2022/03/18 07:37:59;;;;;;;4.67;4.30;;;;;;;22.32;24.07;96914.72;6207813;28;104270;-68
2022/03/18 07:41:00;;;;;;;4.57;4.27;;;;;;;22.35;24.33;96919.56;6208233;28;103057;-67
2022/03/18 07:44:05;;;;;;;4.90;4.50;;;;;;;22.44;24.19;96917.19;6203097;28;104136;-68
2022/03/18 07:47:07;;;;;;;4.60;4.20;;;;;;;22.45;24.27;96916.94;6207506;28;102789;-67
2022/03/18 07:50:09;;;;;;;4.23;3.93;;;;;;;22.56;24.01;96925.03;6207002;28;103702;-67
2022/03/18 07:53:11;;;;;;;4.67;4.27;;;;;;;22.66;23.80;96928.53;6207627;28;102999;-69
2022/03/18 07:56:13;;;;;;;4.50;4.20;;;;;;;22.72;23.57;96916.06;6201350;28;103075;-67
2022/03/18 07:59:14;;;;;;;4.10;3.87;;;;;;;22.77;23.83;96918.75;6207371;28;102749;-67
2022/03/18 08:02:16;;;;;;;4.63;4.10;;;;;;;22.83;23.60;96932.94;6207977;28;103587;-68
2022/03/18 08:05:19;;;;;;;4.23;3.93;;;;;;;22.85;23.78;96926.31;6207771;28;103102;-67
2022/03/18 08:08:21;;;;;;;4.37;4.03;;;;;;;22.90;23.76;96926.34;6202526;28;103108;-68
2022/03/18 08:11:23;;;;;;;3.73;3.50;;;;;;;22.98;23.99;96933.03;6207294;28;103068;-68
2022/03/18 08:14:25;;;;;;;4.20;3.90;;;;;;;22.99;23.92;96935.44;6207985;28;103122;-69
2022/03/18 08:17:27;;;;;;;3.70;3.50;;;;;;;23.03;23.84;96943.75;6201532;28;103189;-68
2022/03/18 08:20:29;;;;;;;3.80;3.60;;;;;;;22.90;23.96;96930.88;6206393;28;102706;-68
2022/03/18 08:23:32;;;;;;;5.00;4.60;;;;;;;22.85;23.49;96934.31;6202121;28;102816;-69
2022/03/18 08:26:36;;;;;;;4.30;4.00;;;;;;;22.93;24.12;96923.16;6182003;28;103001;-67
2022/03/18 08:29:38;;;;;;;4.50;4.20;;;;;;;22.96;24.04;96922.63;6179061;28;103630;-67
2022/03/18 08:32:41;;;;;;;4.03;3.73;;;;;;;22.98;23.90;96925.03;6183188;28;103360;-68
2022/03/18 08:35:42;;;;;;;4.70;4.30;;;;;;;22.98;23.59;96920.50;6182772;28;102751;-68
2022/03/18 08:38:44;;;;;;;4.90;4.60;;;;;;;23.01;23.79;96928.00;6180382;28;102825;-68
2022/03/18 08:41:46;;;;;;;4.00;3.70;;;;;;;23.04;23.54;96926.69;6180613;28;102699;-68
2022/03/18 08:44:48;;;;;;;4.50;4.20;;;;;;;23.06;24.00;96924.56;6182104;28;103297;-68
2022/03/18 08:47:49;;;;;;;4.07;3.77;;;;;;;23.04;23.38;96930.16;6163341;28;103344;-67
2022/03/18 08:50:51;;;;;;;3.97;3.67;;;;;;;23.06;23.59;96916.56;6159512;28;102983;-69
2022/03/18 08:53:53;;;;;;;4.27;3.97;;;;;;;23.07;23.59;96918.97;6181597;28;102974;-68
2022/03/18 08:56:55;;;;;;;4.30;4.00;;;;;;;23.08;23.37;96907.22;6182031;28;102705;-67
2022/03/18 08:59:57;;;;;;;4.23;3.80;;;;;;;23.11;23.39;96914.72;6182745;28;102758;-69
2022/03/18 09:02:59;;;;;;;3.63;3.40;;;;;;;23.14;23.44;96916.06;6176652;28;102770;-66
2022/03/18 09:06:01;;;;;;;4.07;3.77;;;;;;;23.10;23.84;96907.78;6181726;28;102684;-66
2022/03/18 09:09:04;;;;;;;4.10;3.87;;;;;;;23.13;23.61;96905.66;6181616;28;102754;-67
2022/03/18 09:12:07;;;;;;;4.00;3.70;;;;;;;23.15;23.37;96908.84;6177775;28;103089;-66
2022/03/18 09:15:09;;;;;;;4.03;3.80;;;;;;;23.07;24.03;96905.63;6182206;28;102904;-67
2022/03/18 09:18:11;;;;;;;4.00;3.70;;;;;;;23.00;23.80;96912.25;6163644;28;102760;-68
2022/03/18 09:21:13;;;;;;;4.17;3.87;;;;;;;23.03;23.48;96907.22;6181447;28;103283;-67
2022/03/18 09:24:15;;;;;;;4.10;3.80;;;;;;;23.05;23.64;96905.09;6179430;28;103617;-67
2022/03/18 09:27:16;;;;;;;3.70;3.50;;;;;;;23.06;23.91;96913.91;6187027;28;102679;-67
2022/03/18 09:30:18;;;;;;;4.10;3.80;;;;;;;23.06;23.24;96911.22;6187860;28;103223;-68
2022/03/18 09:33:20;;;;;;;3.70;3.50;;;;;;;23.04;23.56;96902.69;6187876;28;103054;-67
2022/03/18 09:36:22;;;;;;;4.20;3.90;;;;;;;23.05;23.52;96915.75;6162309;28;103396;-68
2022/03/18 09:39:27;;;;;;;3.93;3.63;;;;;;;22.94;23.70;96911.44;6185969;28;103152;-67
2022/03/18 09:42:30;;;;;;;3.70;3.50;;;;;;;22.91;23.22;96916.47;6185186;28;102692;-69
2022/03/18 09:45:34;;;;;;;4.20;3.90;;;;;;;22.83;23.77;96915.09;6180078;28;102693;-69
2022/03/18 09:48:38;;;;;;;3.67;3.47;;;;;;;22.78;23.65;96909.69;6184549;28;102932;-69
2022/03/18 09:51:42;;;;;;;3.70;3.50;;;;;;;22.74;23.72;96903.28;6165232;28;102941;-68
2022/03/18 09:54:51;;;;;;;3.80;3.60;;;;;;;22.79;24.04;96895.31;6184485;28;102765;-69
2022/03/18 09:57:53;;;;;;;3.80;3.50;;;;;;;22.76;23.67;96904.63;6154227;28;103304;-69
2022/03/18 10:01:01;;;;;;;4.07;3.83;;;;;;;22.74;23.67;96903.28;6185490;28;102670;-69
2022/03/18 10:04:10;;;;;;;3.73;3.53;;;;;;;22.68;24.12;96904.31;6186367;28;102782;-68
2022/03/18 10:07:12;;;;;;;4.10;3.80;;;;;;;22.63;24.12;96901.63;6181525;28;103111;-70
2022/03/18 10:10:17;;;;;;;3.73;3.53;;;;;;;22.57;23.94;96902.66;6185102;28;103164;-69
2022/03/18 10:13:20;;;;;;;3.93;3.60;;;;;;;22.53;23.99;96907.69;6185081;28;103101;-69
2022/03/18 10:16:33;;;;;;;3.70;3.40;;;;;;;22.49;23.96;96906.56;6185073;28;103228;-69
2022/03/18 10:19:45;;;;;;;3.60;3.40;;;;;;;22.54;23.99;96900.50;6179234;28;102726;-69
2022/03/18 10:22:47;;;;;;;4.07;3.77;;;;;;;22.53;23.83;96899.69;6183606;28;102843;-69
2022/03/18 10:25:55;;;;;;;3.83;3.60;;;;;;;22.51;24.04;96893.84;6208250;28;102917;-70
2022/03/18 10:29:00;;;;;;;4.37;4.07;;;;;;;22.54;24.07;96897.84;6187219;28;102815;-69
2022/03/18 10:32:04;;;;;;;4.17;3.87;;;;;;;22.56;24.01;96898.38;6209191;28;103170;-69
2022/03/18 10:38:48;;;;;;;4.70;4.40;;;;;;;22.58;23.86;96888.25;6208517;28;102792;-69
2022/03/18 10:41:53;;;;;;;4.20;3.90;;;;;;;22.59;23.69;96892.53;6186227;28;103168;-70
2022/03/18 10:45:00;;;;;;;4.37;4.07;;;;;;;22.61;23.80;96899.22;6209432;28;102690;-69
2022/03/18 10:48:14;;;;;;;3.90;3.60;;;;;;;22.60;23.68;96892.28;6181132;28;103113;-69
2022/03/18 10:51:21;;;;;;;3.80;3.60;;;;;;;22.57;23.94;96889.31;6180134;28;103172;-70
2022/03/18 10:54:28;;;;;;;4.10;3.80;;;;;;;22.59;23.81;96884.53;6183459;28;103130;-70
2022/03/18 10:57:30;;;;;;;3.93;3.67;;;;;;;22.58;23.75;96889.06;6166759;28;103254;-69
2022/03/18 11:00:34;;;;;;;3.73;3.53;;;;;;;22.58;23.37;96889.06;6183196;28;103035;-70
2022/03/18 11:03:37;;;;;;;4.53;4.23;;;;;;;22.57;23.99;96879.47;6163273;22;103311;-43
2022/03/18 11:06:39;;;;;;;4.63;4.33;;;;;;;22.56;23.80;96877.88;6154811;28;102694;-43
2022/03/18 11:13:07;;;;;;;4.43;4.13;;;;;;;22.56;23.70;96882.41;6144611;28;102808;-42
2022/03/18 11:16:10;;;;;;;4.07;3.77;;;;;;;22.55;23.96;96873.59;6159047;28;102798;-42
2022/03/18 11:19:14;;;;;;;3.70;3.50;;;;;;;22.52;23.84;96877.59;6158323;28;103985;-41
2022/03/18 11:22:16;;;;;;;4.40;4.10;;;;;;;22.50;24.00;96874.34;6158856;28;103275;-42
2022/03/18 11:25:19;;;;;;;3.80;3.60;;;;;;;22.49;24.10;96877.28;6153029;28;103080;-41
2022/03/18 11:28:22;;;;;;;3.60;3.40;;;;;;;22.47;23.85;96872.22;6157039;28;102806;-42
2022/03/18 11:31:24;;;;;;;4.33;4.03;;;;;;;22.47;24.00;96872.22;6158230;28;102806;-42
2022/03/18 11:34:27;;;;;;;4.70;4.30;;;;;;;22.46;24.05;96865.28;6158896;28;102739;-43
2022/03/18 11:37:30;;;;;;;4.10;3.80;;;;;;;22.45;23.93;96868.19;6152802;28;102997;-42
2022/03/18 11:40:33;;;;;;;4.33;3.93;;;;;;;22.43;24.08;96868.47;6159003;28;102738;-42
2022/03/18 11:43:41;;;;;;;4.10;3.80;;;;;;;22.41;23.89;96861.78;6158920;28;103216;-43
2022/03/18 11:46:43;;;;;;;3.60;3.40;;;;;;;22.40;24.00;96868.19;6152869;28;103315;-42
2022/03/18 11:49:46;;;;;;;4.10;3.80;;;;;;;22.38;24.23;96864.97;6158585;28;102893;-43
2022/03/18 11:52:58;;;;;;;4.10;3.80;;;;;;;22.34;23.72;96854.03;6157861;28;103045;-42
2022/03/18 11:56:11;;;;;;;4.10;3.63;;;;;;;22.33;23.93;96857.72;6156658;28;103297;-42
2022/03/18 11:59:24;;;;;;;3.97;3.67;;;;;;;22.33;23.81;96843.59;6152531;28;102888;-42
2022/03/18 12:02:35;;;;;;;4.13;3.83;;;;;;;22.30;24.10;96844.13;6158785;28;103161;-42
2022/03/18 12:05:57;;;;;;;4.60;4.23;;;;;;;22.29;23.84;96843.31;6158833;28;103181;-42
2022/03/18 12:09:06;;;;;;;3.60;3.40;;;;;;;22.26;24.02;96846.50;6152297;28;102732;-42
2022/03/18 12:12:15;;;;;;;4.47;4.17;;;;;;;22.24;24.02;96845.97;6135012;28;102728;-42
2022/03/18 12:15:21;;;;;;;3.90;3.60;;;;;;;22.24;24.11;96850.50;6134099;28;102809;-43
2022/03/18 12:18:28;;;;;;;3.93;3.63;;;;;;;22.21;23.84;96836.63;6133999;28;102815;-43
2022/03/18 12:21:43;;;;;;;3.70;3.50;;;;;;;22.16;24.06;96835.78;6128352;28;103047;-42
2022/03/18 12:24:48;;;;;;;4.00;3.70;;;;;;;22.16;24.08;96836.56;6134358;28;103335;-42
2022/03/18 12:27:52;;;;;;;4.17;3.87;;;;;;;22.14;23.95;96846.69;6132914;28;103280;-42
2022/03/18 12:30:54;;;;;;;4.33;4.03;;;;;;;22.11;24.36;96841.06;6127846;28;103067;-43
2022/03/18 12:33:58;;;;;;;4.57;4.27;;;;;;;22.10;24.14;96828.81;6134051;28;103163;-43
2022/03/18 12:37:01;;;;;;;4.00;3.70;;;;;;;22.10;24.19;96832.28;6133166;28;102765;-42
2022/03/18 12:40:11;;;;;;;3.83;3.50;;;;;;;22.10;24.48;96831.47;6133324;28;102848;-42
2022/03/18 12:43:15;;;;;;;3.83;3.53;;;;;;;22.09;24.15;96840.53;6128108;28;102767;-43
2022/03/18 12:46:17;;;;;;;4.67;4.27;;;;;;;22.13;24.21;96836.28;6133958;28;103143;-43
2022/03/18 12:49:19;;;;;;;3.73;3.43;;;;;;;22.21;24.28;96841.16;6133604;28;102841;-43
2022/03/18 12:52:22;;;;;;;4.60;4.30;;;;;;;22.25;24.53;96836.13;6127847;28;102799;-42
2022/03/18 12:55:25;;;;;;;3.73;3.43;;;;;;;22.28;24.50;96836.41;6132930;28;102839;-42
2022/03/18 12:58:28;;;;;;;3.97;3.67;;;;;;;22.30;24.96;96822.81;6132213;28;102858;-43
2022/03/18 13:01:30;;;;;;;4.03;3.77;;;;;;;22.30;24.34;96828.94;6137379;28;102765;-42
2022/03/18 13:04:33;;;;;;;4.70;4.40;;;;;;;22.24;24.35;96819.34;6132728;28;102931;-43
2022/03/18 13:07:35;;;;;;;4.10;3.80;;;;;;;22.20;24.30;96818.25;6137065;28;102712;-42
2022/03/18 13:10:38;;;;;;;3.83;3.63;;;;;;;22.17;24.71;96813.41;6136921;28;103385;-43
2022/03/18 13:13:46;;;;;;;4.80;4.47;;;;;;;22.12;24.52;96816.84;6137739;28;103466;-42
2022/03/18 13:16:48;;;;;;;4.17;3.87;;;;;;;22.12;24.61;96816.84;6131723;28;102848;-43
2022/03/18 13:19:54;;;;;;;4.60;4.27;;;;;;;22.09;24.37;96820.03;6137251;28;103007;-42
2022/03/18 13:22:59;;;;;;;4.07;3.77;;;;;;;22.06;24.56;96815.22;6136859;28;102931;-43
2022/03/18 13:26:01;;;;;;;4.30;4.00;;;;;;;22.06;24.39;96814.41;6131690;28;102821;-43
2022/03/18 13:29:03;;;;;;;4.13;3.83;;;;;;;22.06;24.57;96806.44;6136016;28;102716;-42
2022/03/18 13:35:28;;;;;;;4.53;4.23;;;;;;;22.03;24.45;96812.25;6137090;28;103472;-42
2022/03/18 13:38:32;;;;;;;4.37;4.07;;;;;;;22.04;24.48;96811.19;6131148;28;102764;-43
2022/03/18 13:41:48;;;;;;;4.47;4.17;;;;;;;22.02;24.50;96813.31;6136686;28;102828;-42
2022/03/18 13:44:50;;;;;;;4.30;4.00;;;;;;;22.01;24.30;96814.38;6136949;28;102996;-43
2022/03/18 13:47:53;;;;;;;4.27;3.97;;;;;;;22.01;24.24;96814.38;6131285;28;102763;-43
2022/03/18 13:50:55;;;;;;;4.33;3.93;;;;;;;22.01;24.45;96814.38;6136371;28;103209;-42
2022/03/18 13:54:11;;;;;;;3.43;3.23;;;;;;;21.99;24.37;96817.25;6136784;28;103084;-42
2022/03/18 13:57:14;;;;;;;3.83;3.53;;;;;;;22.00;24.15;96812.72;6136706;28;102880;-42
2022/03/18 14:00:30;;;;;;;3.97;3.60;;;;;;;21.98;24.13;96810.31;6129548;28;102877;-42
2022/03/18 14:03:32;;;;;;;3.80;3.50;;;;;;;21.97;24.30;96800.75;6136352;28;103050;-42
2022/03/18 14:06:53;;;;;;;3.83;3.63;;;;;;;21.97;24.50;96813.25;6135799;28;102977;-43
2022/03/18 14:10:19;;;;;;;3.90;3.60;;;;;;;21.98;24.17;96814.84;6130195;28;103982;-42
2022/03/18 14:13:25;;;;;;;4.47;4.10;;;;;;;;;;6136076;28;102963;-42
2022/03/18 14:16:27;;;;;;;4.03;3.70;;;;;;;21.94;24.12;96814.56;6136603;28;102713;-42
2022/03/18 14:19:42;;;;;;;4.27;3.97;;;;;;;;;;6135936;28;102739;-42
2022/03/18 14:22:45;;;;;;;3.87;3.60;;;;;;;21.94;24.32;96809.25;6134442;28;102701;-43
2022/03/18 14:25:48;;;;;;;3.77;3.50;;;;;;;21.96;24.32;96808.97;6136161;28;103330;-43
2022/03/18 14:28:50;;;;;;;3.90;3.60;;;;;;;21.93;24.29;96818.28;6118245;28;103311;-42
2022/03/18 14:31:51;;;;;;;4.13;3.83;;;;;;;21.92;24.27;96820.13;6129422;28;102773;-42
2022/03/18 14:34:55;;;;;;;4.03;3.73;;;;;;;21.91;24.07;96818.53;6135432;28;103272;-42
2022/03/18 14:37:58;;;;;;;4.00;3.73;;;;;;;21.91;24.28;96828.38;6135330;28;102781;-43